Time;durP1;ratioP1;P1;durP2;ratioP2;P2;SDS_P1;SDS_P2;PMS_P1;PMS_P2;Temp;Humidity;BMP_temperature;BMP_pressure;BME280_temperature;BME280_humidity;BME280_pressure;Samples;Min_cycle;Max_cycle;Signal;HPM_P1;HPM_P2
2024/02/11 00:01:22;;;;;;;1.50;1.40;;;18.80;72.50;;;;;;5051302;28;20428;-63
2024/02/11 00:03:48;;;;;;;1.90;1.80;;;18.80;72.50;;;;;;5051498;28;20021;-63
2024/02/11 00:06:14;;;;;;;1.80;1.70;;;18.80;72.50;;;;;;5051395;28;20116;-63
2024/02/11 00:08:40;;;;;;;1.50;1.40;;;18.80;72.50;;;;;;5051609;28;20025;-63
2024/02/11 00:11:06;;;;;;;1.70;1.60;;;18.80;72.50;;;;;;5051329;28;20043;-63
2024/02/11 00:13:32;;;;;;;1.75;1.40;;;18.80;72.50;;;;;;5051308;28;20025;-63
2024/02/11 00:16:01;;;;;;;1.75;1.65;;;18.80;72.50;;;;;;5051302;28;20036;-63
2024/02/11 00:18:28;;;;;;;1.67;1.52;;;18.80;72.50;;;;;;5051105;28;20577;-63
2024/02/11 00:20:57;;;;;;;1.63;1.50;;;18.80;72.50;;;;;;5050944;28;20515;-63
2024/02/11 00:23:24;;;;;;;1.88;1.77;;;18.80;72.50;;;;;;5051271;28;20106;-63
2024/02/11 00:25:53;;;;;;;1.80;1.63;;;18.80;72.50;;;;;;5051336;28;20029;-63
2024/02/11 00:28:25;;;;;;;1.38;1.27;;;18.80;72.40;;;;;;5051050;28;20098;-63
2024/02/11 00:30:53;;;;;;;1.52;1.42;;;18.80;72.50;;;;;;5031281;28;20396;-63
2024/02/11 00:33:20;;;;;;;1.50;1.40;;;18.80;72.50;;;;;;5031037;28;20505;-63
2024/02/11 00:35:46;;;;;;;2.20;1.67;;;18.80;72.50;;;;;;5031231;28;20501;-63
2024/02/11 00:38:14;;;;;;;1.50;1.40;;;18.80;72.50;;;;;;5031177;28;20104;-63
2024/02/11 00:40:39;;;;;;;1.65;1.55;;;18.80;72.40;;;;;;5031012;28;20026;-63
2024/02/11 00:43:07;;;;;;;1.80;1.70;;;18.80;72.50;;;;;;5031267;28;20092;-63
2024/02/11 00:45:33;;;;;;;1.67;1.58;;;18.80;72.40;;;;;;5031139;28;20448;-63
2024/02/11 00:48:03;;;;;;;1.55;1.45;;;18.80;72.40;;;;;;5031035;28;20018;-63
2024/02/11 00:50:31;;;;;;;1.98;1.77;;;18.80;72.40;;;;;;5031718;28;20037;-64
2024/02/11 00:52:57;;;;;;;1.80;1.70;;;18.80;72.40;;;;;;5034983;28;20017;-63
2024/02/11 00:55:23;;;;;;;1.77;1.60;;;18.80;72.50;;;;;;5034947;28;20426;-64
2024/02/11 00:57:49;;;;;;;2.00;1.80;;;18.80;72.40;;;;;;5034747;28;20025;-64
2024/02/11 01:00:15;;;;;;;2.28;1.60;;;18.80;72.40;;;;;;5034588;28;20396;-64
2024/02/11 01:02:41;;;;;;;1.75;1.65;;;18.80;72.40;;;;;;5034500;28;20025;-64
2024/02/11 01:05:07;;;;;;;1.88;1.77;;;18.80;72.40;;;;;;5034631;28;20534;-64
2024/02/11 01:07:36;;;;;;;1.85;1.65;;;18.80;72.40;;;;;;5034787;28;20374;-64
2024/02/11 01:10:01;;;;;;;1.70;1.60;;;18.80;72.40;;;;;;5034556;28;20413;-64
2024/02/11 01:12:28;;;;;;;1.63;1.52;;;18.80;72.40;;;;;;5034413;28;20027;-64
2024/02/11 01:14:56;;;;;;;1.40;1.30;;;18.80;72.40;;;;;;5034559;28;20404;-64
2024/02/11 01:17:23;;;;;;;1.50;1.40;;;18.80;72.40;;;;;;5034454;28;20075;-64
2024/02/11 01:19:49;;;;;;;1.70;1.60;;;18.80;72.40;;;;;;5034393;28;20029;-64
2024/02/11 01:22:15;;;;;;;1.55;1.45;;;18.80;72.40;;;;;;5034256;28;20072;-64
2024/02/11 01:24:41;;;;;;;1.50;1.40;;;18.80;72.40;;;;;;5034203;28;20446;-64
2024/02/11 01:27:08;;;;;;;1.48;1.38;;;18.80;72.40;;;;;;5034119;28;20036;-64
2024/02/11 01:29:35;;;;;;;1.63;1.52;;;18.80;72.40;;;;;;5033932;28;20749;-64
2024/02/11 01:32:01;;;;;;;1.67;1.58;;;18.80;72.40;;;;;;5034145;28;20070;-64
2024/02/11 01:34:28;;;;;;;1.52;1.42;;;18.80;72.40;;;;;;5034034;28;20090;-63
2024/02/11 01:36:54;;;;;;;1.73;1.63;;;18.80;72.40;;;;;;5034053;28;20033;-64
2024/02/11 01:39:19;;;;;;;2.45;1.77;;;18.80;72.40;;;;;;5033927;28;20036;-64
2024/02/11 01:41:45;;;;;;;1.63;1.52;;;18.80;72.40;;;;;;5033753;28;20024;-64
2024/02/11 01:44:12;;;;;;;1.60;1.50;;;18.80;72.40;;;;;;5034017;28;20437;-64
2024/02/11 01:46:38;;;;;;;2.03;1.85;;;18.80;72.40;;;;;;5033809;28;20022;-64
2024/02/11 01:49:04;;;;;;;1.70;1.60;;;18.80;72.40;;;;;;5034108;28;20072;-64
2024/02/11 01:51:33;;;;;;;2.05;1.85;;;18.80;72.40;;;;;;5016182;28;20552;-63
2024/02/11 01:53:59;;;;;;;1.50;1.40;;;18.80;72.40;;;;;;5034042;28;20056;-64
2024/02/11 01:56:25;;;;;;;1.40;1.30;;;18.80;72.40;;;;;;5034135;28;20029;-64
2024/02/11 01:58:51;;;;;;;1.45;1.33;;;18.80;72.30;;;;;;5033610;28;20112;-63
2024/02/11 02:01:18;;;;;;;1.70;1.60;;;18.80;72.40;;;;;;5033273;28;20029;-63
2024/02/11 02:03:47;;;;;;;1.80;1.70;;;18.80;72.30;;;;;;5032974;28;20026;-63
2024/02/11 02:06:13;;;;;;;1.50;1.40;;;18.80;72.30;;;;;;5033669;28;20026;-63
2024/02/11 02:08:39;;;;;;;1.70;1.60;;;18.70;72.40;;;;;;5033771;28;20029;-63
2024/02/11 02:11:05;;;;;;;1.55;1.35;;;18.70;72.40;;;;;;5042796;28;20032;-62
2024/02/11 02:13:30;;;;;;;1.77;1.50;;;18.80;72.30;;;;;;5043753;28;20074;-63
2024/02/11 02:15:56;;;;;;;1.73;1.50;;;18.80;72.40;;;;;;5054790;28;20031;-63
2024/02/11 02:18:22;;;;;;;1.77;1.67;;;18.80;72.40;;;;;;5056561;28;20036;-63
2024/02/11 02:20:47;;;;;;;1.98;1.77;;;18.80;72.40;;;;;;5056462;28;20126;-63
2024/02/11 02:23:13;;;;;;;1.52;1.42;;;18.80;72.30;;;;;;5057059;28;20029;-63
2024/02/11 02:25:39;;;;;;;1.88;1.70;;;18.80;72.40;;;;;;5057390;28;20028;-63
2024/02/11 02:28:05;;;;;;;1.40;1.30;;;18.80;72.40;;;;;;5057659;28;20037;-63
2024/02/11 02:30:33;;;;;;;1.40;1.30;;;18.80;72.40;;;;;;5053732;28;20100;-63
2024/02/11 02:32:59;;;;;;;1.58;1.38;;;18.80;72.40;;;;;;5053018;28;20082;-63
2024/02/11 02:35:25;;;;;;;1.58;1.48;;;18.80;72.40;;;;;;5035044;28;20124;-63
2024/02/11 02:37:52;;;;;;;1.92;1.50;;;18.80;72.40;;;;;;5052683;28;20514;-63
2024/02/11 02:40:19;;;;;;;1.50;1.33;;;18.80;72.40;;;;;;5034804;28;20026;-63
2024/02/11 02:42:44;;;;;;;2.03;1.63;;;18.80;72.30;;;;;;5042729;28;20028;-63
2024/02/11 02:45:10;;;;;;;1.42;1.33;;;18.80;72.40;;;;;;5032787;28;20397;-63
2024/02/11 02:47:36;;;;;;;1.90;1.60;;;18.80;72.30;;;;;;5032607;28;20080;-63
2024/02/11 02:50:02;;;;;;;1.70;1.60;;;18.70;72.30;;;;;;5032924;28;20025;-64
2024/02/11 02:52:28;;;;;;;1.52;1.42;;;18.70;72.30;;;;;;5032515;28;20021;-63
2024/02/11 02:54:55;;;;;;;1.80;1.65;;;18.80;72.30;;;;;;5032816;28;20501;-63
2024/02/11 02:57:20;;;;;;;1.55;1.45;;;18.80;72.40;;;;;;5048413;28;20672;-65
2024/02/11 02:59:46;;;;;;;2.03;1.80;;;18.80;72.30;;;;;;5052339;28;20108;-65
2024/02/11 03:02:12;;;;;;;1.40;1.30;;;18.80;72.30;;;;;;5052148;28;20104;-63
2024/02/11 03:04:38;;;;;;;2.25;1.50;;;18.70;72.30;;;;;;5052571;28;20029;-63
2024/02/11 03:07:06;;;;;;;1.52;1.42;;;18.70;72.30;;;;;;5052273;28;20499;-63
2024/02/11 03:09:33;;;;;;;1.83;1.67;;;18.70;72.30;;;;;;5052425;28;20025;-63
2024/02/11 03:11:59;;;;;;;1.58;1.48;;;18.80;72.30;;;;;;5052110;28;20095;-63
2024/02/11 03:14:24;;;;;;;1.60;1.35;;;18.80;72.30;;;;;;5048651;28;20400;-62
2024/02/11 03:16:50;;;;;;;1.48;1.38;;;18.70;72.30;;;;;;5052121;28;20032;-63
2024/02/11 03:19:18;;;;;;;1.55;1.45;;;18.80;72.40;;;;;;5052273;28;20028;-63
2024/02/11 03:21:48;;;;;;;1.73;1.63;;;18.70;72.30;;;;;;5051841;28;20108;-63
2024/02/11 03:24:14;;;;;;;1.50;1.40;;;18.70;72.30;;;;;;5051999;28;20025;-63
2024/02/11 03:26:40;;;;;;;1.52;1.42;;;18.70;72.40;;;;;;5051820;28;20040;-63
2024/02/11 03:29:07;;;;;;;1.90;1.73;;;18.80;72.30;;;;;;5051833;28;20499;-63
2024/02/11 03:31:34;;;;;;;1.38;1.27;;;18.80;72.30;;;;;;5051673;28;20520;-63
2024/02/11 03:34:00;;;;;;;1.90;1.70;;;18.70;72.30;;;;;;5051832;28;20512;-63
2024/02/11 03:36:26;;;;;;;1.60;1.50;;;18.70;72.40;;;;;;5051944;28;20095;-63
2024/02/11 03:38:52;;;;;;;1.60;1.50;;;18.80;72.30;;;;;;5051699;28;20036;-63
2024/02/11 03:41:18;;;;;;;1.40;1.30;;;18.70;72.30;;;;;;5051498;28;20032;-63
2024/02/11 03:43:44;;;;;;;1.63;1.30;;;18.70;72.30;;;;;;5051483;28;20053;-63
2024/02/11 03:46:09;;;;;;;1.45;1.35;;;18.70;72.30;;;;;;5051673;28;20021;-63
2024/02/11 03:48:35;;;;;;;1.48;1.30;;;18.80;72.30;;;;;;5051692;28;20087;-63
2024/02/11 03:51:01;;;;;;;1.42;1.33;;;18.70;72.30;;;;;;5051487;28;20025;-63
2024/02/11 03:53:27;;;;;;;1.50;1.40;;;18.70;72.30;;;;;;5051749;28;20028;-63
2024/02/11 03:55:53;;;;;;;1.20;1.10;;;18.70;72.30;;;;;;5051736;28;20108;-63
2024/02/11 03:58:19;;;;;;;1.65;1.55;;;18.70;72.30;;;;;;5051502;28;20461;-63
2024/02/11 04:00:44;;;;;;;1.70;1.60;;;18.70;72.30;;;;;;5051341;28;20021;-63
2024/02/11 04:03:11;;;;;;;1.50;1.40;;;18.70;72.30;;;;;;5051466;28;20511;-63
2024/02/11 04:05:39;;;;;;;1.42;1.33;;;18.70;72.30;;;;;;5051475;28;20056;-63
2024/02/11 04:08:08;;;;;;;2.05;1.85;;;18.70;72.30;;;;;;5051405;28;20120;-62
2024/02/11 04:10:36;;;;;;;1.95;1.75;;;18.80;72.30;;;;;;5051112;28;20029;-63
2024/02/11 04:13:02;;;;;;;1.90;1.70;;;18.70;72.30;;;;;;5051480;28;20017;-62
2024/02/11 04:15:28;;;;;;;1.42;1.33;;;18.70;72.30;;;;;;5051555;28;20051;-63
2024/02/11 04:17:56;;;;;;;1.40;1.30;;;18.70;72.30;;;;;;5051142;28;20485;-63
2024/02/11 04:20:26;;;;;;;1.30;1.20;;;18.70;72.30;;;;;;5051096;28;20485;-63
2024/02/11 04:22:55;;;;;;;1.42;1.33;;;18.70;72.30;;;;;;5051685;28;20063;-62
2024/02/11 04:25:22;;;;;;;1.75;1.33;;;18.70;72.30;;;;;;5051914;28;20427;-63
2024/02/11 04:27:49;;;;;;;2.00;1.70;;;18.70;72.30;;;;;;5076193;22;20128;-68
2024/02/11 04:30:15;;;;;;;2.00;1.60;;;18.70;72.30;;;;;;5055129;28;20044;-68
2024/02/11 04:32:42;;;;;;;1.40;1.30;;;18.70;72.30;;;;;;5037266;28;20021;-68
2024/02/11 04:35:14;;;;;;;1.60;1.50;;;18.70;72.40;;;;;;5055369;28;20036;-68
2024/02/11 04:37:46;;;;;;;1.58;1.48;;;18.70;72.40;;;;;;5055174;28;20021;-67
2024/02/11 04:40:18;;;;;;;1.52;1.38;;;18.70;72.40;;;;;;5055218;28;20108;-68
2024/02/11 04:42:46;;;;;;;1.58;1.48;;;18.70;72.40;;;;;;5055108;28;20072;-68
2024/02/11 04:45:16;;;;;;;2.40;1.60;;;18.70;72.40;;;;;;5037126;28;20033;-68
2024/02/11 04:47:50;;;;;;;1.27;1.17;;;18.70;72.40;;;;;;5055047;28;20100;-68
2024/02/11 04:50:16;;;;;;;1.20;1.10;;;18.70;72.40;;;;;;5054938;28;20515;-67
2024/02/11 04:52:54;;;;;;;1.40;1.30;;;18.70;72.40;;;;;;5054933;28;20040;-68
2024/02/11 04:55:38;;;;;;;2.15;1.63;;;18.70;72.40;;;;;;5054975;28;20029;-68
2024/02/11 04:58:07;;;;;;;1.17;1.08;;;18.70;72.40;;;;;;5054733;28;20091;-68
2024/02/11 05:00:36;;;;;;;1.60;1.50;;;18.70;72.40;;;;;;5054518;28;20029;-68
2024/02/11 05:03:06;;;;;;;1.73;1.60;;;18.70;72.40;;;;;;5036883;28;20028;-69
2024/02/11 05:05:33;;;;;;;1.35;1.17;;;18.70;72.40;;;;;;5054612;28;20021;-67
2024/02/11 05:08:03;;;;;;;1.63;1.48;;;18.70;72.40;;;;;;5054625;28;20100;-67
2024/02/11 05:10:34;;;;;;;1.88;1.33;;;18.70;72.40;;;;;;5054418;28;20070;-67
2024/02/11 05:13:04;;;;;;;1.63;1.50;;;18.70;72.40;;;;;;5054614;28;20027;-68
2024/02/11 05:15:31;;;;;;;1.45;1.30;;;18.70;72.40;;;;;;5054806;28;20036;-67
2024/02/11 05:17:56;;;;;;;1.40;1.30;;;18.70;72.40;;;;;;5054676;28;20029;-68
2024/02/11 05:20:23;;;;;;;1.30;1.20;;;18.70;72.40;;;;;;5053996;28;20036;-68
2024/02/11 05:22:55;;;;;;;1.58;1.45;;;18.70;72.40;;;;;;5036334;28;20032;-68
2024/02/11 05:25:22;;;;;;;1.58;1.48;;;18.70;72.50;;;;;;5054164;28;20025;-68
2024/02/11 05:27:59;;;;;;;1.33;1.23;;;18.70;72.50;;;;;;5052657;28;20443;-68
2024/02/11 05:30:34;;;;;;;1.33;1.23;;;18.70;72.50;;;;;;5053958;28;20025;-68
2024/02/11 05:33:06;;;;;;;1.75;1.60;;;18.70;72.50;;;;;;5054280;28;20021;-68
2024/02/11 05:35:37;;;;;;;;;;;18.70;72.50;;;;;;5054674;28;20097;-68
2024/02/11 05:38:03;;;;;;;1.40;1.30;;;18.70;72.50;;;;;;5053745;28;19913;-67
2024/02/11 05:40:32;;;;;;;1.60;1.50;;;18.70;72.50;;;;;;5052337;28;20052;-68
2024/02/11 05:42:59;;;;;;;1.40;1.15;;;18.70;72.50;;;;;;5054056;28;20028;-67
2024/02/11 05:45:27;;;;;;;1.30;1.20;;;18.70;72.50;;;;;;5053866;28;20025;-67
2024/02/11 05:47:54;;;;;;;1.85;1.52;;;18.70;72.50;;;;;;5035911;28;20027;-67
2024/02/11 05:50:21;;;;;;;1.35;1.15;;;18.70;72.50;;;;;;5053603;28;20031;-67
2024/02/11 05:52:47;;;;;;;1.38;1.27;;;18.70;72.50;;;;;;5053891;28;20116;-67
2024/02/11 05:55:16;;;;;;;1.42;1.33;;;18.70;72.50;;;;;;5053777;28;20021;-66
2024/02/11 05:57:43;;;;;;;1.73;1.30;;;18.70;72.50;;;;;;5053686;28;20117;-68
2024/02/11 06:00:14;;;;;;;1.42;1.33;;;18.70;72.50;;;;;;5053774;28;20112;-67
2024/02/11 06:02:41;;;;;;;1.52;1.40;;;18.70;72.50;;;;;;5054052;28;20037;-68
2024/02/11 06:05:14;;;;;;;1.40;1.30;;;18.70;72.50;;;;;;5053742;28;20029;-68
2024/02/11 06:07:45;;;;;;;1.00;1.00;;;18.70;72.50;;;;;;5053623;28;20017;-68
2024/02/11 06:10:12;;;;;;;1.23;1.13;;;18.70;72.50;;;;;;5053588;28;20087;-66
2024/02/11 06:12:42;;;;;;;1.33;1.23;;;18.70;72.50;;;;;;5053469;28;20068;-68
2024/02/11 06:15:20;;;;;;;1.27;1.15;;;18.70;72.50;;;;;;5053385;28;20032;-67
2024/02/11 06:17:49;;;;;;;1.50;1.40;;;18.70;72.50;;;;;;5053648;28;20547;-68
2024/02/11 06:20:17;;;;;;;1.60;1.50;;;18.70;72.50;;;;;;5053124;28;20021;-67
2024/02/11 06:22:49;;;;;;;1.00;0.88;;;18.70;72.50;;;;;;5053272;28;20078;-67
2024/02/11 06:25:16;;;;;;;1.10;1.00;;;18.70;72.50;;;;;;5053283;28;20029;-67
2024/02/11 06:27:41;;;;;;;1.58;1.38;;;18.70;72.50;;;;;;5053314;28;20028;-67
2024/02/11 06:30:15;;;;;;;1.35;1.20;;;18.70;72.50;;;;;;5053063;28;20392;-67
2024/02/11 06:32:41;;;;;;;1.27;1.17;;;18.70;72.50;;;;;;5053186;28;20146;-67
2024/02/11 06:35:09;;;;;;;1.10;1.00;;;18.70;72.50;;;;;;5053120;28;20080;-68
2024/02/11 06:37:35;;;;;;;1.63;1.52;;;18.70;72.50;;;;;;5052946;28;20025;-68
2024/02/11 06:40:01;;;;;;;1.38;1.15;;;18.70;72.50;;;;;;5052771;28;20058;-67
2024/02/11 06:42:30;;;;;;;1.63;1.23;;;18.70;72.50;;;;;;5052365;28;20120;-68
2024/02/11 06:44:56;;;;;;;1.90;1.40;;;18.70;72.50;;;;;;5052825;28;20485;-68
2024/02/11 06:47:22;;;;;;;1.45;1.27;;;18.70;72.50;;;;;;5052845;28;20052;-68
2024/02/11 06:49:48;;;;;;;1.40;1.30;;;18.70;72.50;;;;;;5052326;28;20053;-67
2024/02/11 06:52:13;;;;;;;1.20;0.98;;;18.70;72.50;;;;;;5052672;28;20397;-68
2024/02/11 06:54:40;;;;;;;1.17;1.10;;;18.70;72.50;;;;;;5052821;28;20025;-67
2024/02/11 06:57:10;;;;;;;1.25;1.15;;;18.70;72.60;;;;;;5052771;28;20033;-67
2024/02/11 06:59:36;;;;;;;1.58;1.27;;;18.70;72.50;;;;;;5036370;28;20025;-68
2024/02/11 07:02:04;;;;;;;1.15;1.05;;;18.70;72.60;;;;;;5055050;28;20081;-67
2024/02/11 07:04:34;;;;;;;0.90;0.90;;;18.70;72.50;;;;;;5037004;28;20475;-68
2024/02/11 07:07:03;;;;;;;2.72;1.40;;;18.70;72.60;;;;;;5053760;28;20021;-68
2024/02/11 07:09:29;;;;;;;1.20;1.10;;;18.70;72.60;;;;;;5052504;28;20021;-68
2024/02/11 07:11:55;;;;;;;1.67;1.48;;;18.70;72.60;;;;;;5052393;28;20017;-68
2024/02/11 07:14:21;;;;;;;1.20;1.10;;;18.70;72.60;;;;;;5052503;28;20021;-68
2024/02/11 07:16:49;;;;;;;1.48;1.38;;;18.70;72.60;;;;;;5052488;28;20534;-68
2024/02/11 07:19:15;;;;;;;1.40;1.30;;;18.70;72.60;;;;;;5052277;28;20017;-67
2024/02/11 07:21:41;;;;;;;0.98;0.88;;;18.70;72.60;;;;;;5052150;28;20602;-68
2024/02/11 07:24:07;;;;;;;1.40;1.30;;;18.70;72.60;;;;;;5052153;28;20040;-67
2024/02/11 07:26:36;;;;;;;1.60;1.38;;;18.70;72.60;;;;;;5052072;28;20428;-67
2024/02/11 07:29:03;;;;;;;1.50;1.40;;;18.70;72.60;;;;;;5052164;28;20033;-67
2024/02/11 07:31:29;;;;;;;1.40;1.17;;;18.70;72.60;;;;;;5052073;28;20035;-67
2024/02/11 07:33:55;;;;;;;1.55;1.38;;;18.70;72.60;;;;;;5052092;28;20031;-67
2024/02/11 07:36:22;;;;;;;1.40;1.30;;;18.70;72.60;;;;;;5052190;28;20108;-67
2024/02/11 07:38:51;;;;;;;1.67;1.38;;;18.70;72.60;;;;;;5052005;28;20067;-68
2024/02/11 07:41:17;;;;;;;1.50;1.40;;;18.70;72.60;;;;;;5051609;28;20399;-67
2024/02/11 07:43:43;;;;;;;1.08;1.08;;;18.70;72.60;;;;;;5051581;28;20061;-67
2024/02/11 07:46:09;;;;;;;1.58;1.40;;;18.70;72.60;;;;;;5051907;28;20051;-67
2024/02/11 07:48:35;;;;;;;1.38;1.27;;;18.70;72.60;;;;;;5051729;28;20028;-67
2024/02/11 07:51:01;;;;;;;1.52;1.17;;;18.70;72.60;;;;;;5051460;28;20048;-67
2024/02/11 07:53:27;;;;;;;1.33;1.17;;;18.70;72.60;;;;;;5051832;28;20473;-67
2024/02/11 07:55:52;;;;;;;1.17;1.08;;;18.70;72.60;;;;;;5051878;28;20029;-67
2024/02/11 07:58:18;;;;;;;1.08;1.00;;;18.70;72.60;;;;;;5051601;28;20032;-68
2024/02/11 08:00:45;;;;;;;1.35;1.23;;;18.70;72.60;;;;;;5051351;28;20411;-67
2024/02/11 08:03:11;;;;;;;1.23;1.10;;;18.70;72.60;;;;;;5051792;28;20484;-67
2024/02/11 08:05:37;;;;;;;1.50;1.40;;;18.70;72.60;;;;;;5051396;28;20546;-67
2024/02/11 08:08:03;;;;;;;1.48;1.23;;;18.60;72.60;;;;;;5051772;28;20048;-67
2024/02/11 08:10:29;;;;;;;1.20;1.10;;;18.70;72.60;;;;;;5051459;28;20025;-68
2024/02/11 08:12:55;;;;;;;1.58;0.90;;;18.70;72.60;;;;;;5051414;28;20484;-67
2024/02/11 08:15:20;;;;;;;1.17;0.90;;;18.70;72.60;;;;;;5051062;28;20072;-67
2024/02/11 08:17:46;;;;;;;1.75;1.50;;;18.70;72.60;;;;;;5033543;28;20075;-68
2024/02/11 08:20:12;;;;;;;1.20;1.10;;;18.70;72.60;;;;;;5051494;28;20108;-66
2024/02/11 08:22:38;;;;;;;1.20;1.10;;;18.70;72.60;;;;;;5051665;28;20047;-67
2024/02/11 08:25:07;;;;;;;1.42;1.30;;;18.70;72.60;;;;;;5051326;28;20025;-68
2024/02/11 08:27:37;;;;;;;1.33;1.23;;;18.70;72.60;;;;;;5051266;28;20972;-67
2024/02/11 08:30:04;;;;;;;1.30;1.20;;;18.70;72.60;;;;;;5051381;28;20056;-68
2024/02/11 08:32:30;;;;;;;1.13;1.02;;;18.70;72.60;;;;;;5033305;28;20021;-68
2024/02/11 08:34:55;;;;;;;1.20;1.10;;;18.70;72.60;;;;;;5051497;28;20032;-68
2024/02/11 08:37:21;;;;;;;1.20;1.08;;;18.70;72.60;;;;;;5051333;28;20504;-69
2024/02/11 08:39:47;;;;;;;1.10;1.02;;;18.70;72.60;;;;;;5051183;28;20033;-66
2024/02/11 08:42:14;;;;;;;3.20;1.38;;;18.70;72.60;;;;;;5051343;28;20437;-68
2024/02/11 08:44:40;;;;;;;1.30;1.20;;;18.70;72.60;;;;;;5051360;28;20032;-67
2024/02/11 08:47:08;;;;;;;1.20;1.10;;;18.70;72.60;;;;;;5051179;28;20021;-68
2024/02/11 08:49:34;;;;;;;1.10;1.00;;;18.60;72.60;;;;;;5051026;28;20436;-67
2024/02/11 08:52:00;;;;;;;1.58;1.25;;;18.60;72.60;;;;;;5050885;28;20032;-68
2024/02/11 08:54:26;;;;;;;1.70;1.30;;;18.70;72.60;;;;;;5051020;28;20405;-68
2024/02/11 08:56:52;;;;;;;2.35;1.40;;;18.70;72.60;;;;;;5050989;28;20017;-67
2024/02/11 08:59:17;;;;;;;1.20;1.10;;;18.70;72.60;;;;;;5050919;28;20095;-68
2024/02/11 09:01:55;;;;;;;1.73;1.40;;;18.70;72.60;;;;;;5050851;28;20040;-68
2024/02/11 09:04:23;;;;;;;2.10;1.38;;;18.70;72.60;;;;;;5051015;28;20484;-68
2024/02/11 09:06:51;;;;;;;1.50;1.40;;;18.70;72.60;;;;;;5050791;28;20025;-68
2024/02/11 09:09:25;;;;;;;1.25;1.17;;;18.60;72.60;;;;;;5050757;28;20489;-67
2024/02/11 09:11:55;;;;;;;1.40;1.20;;;18.70;72.60;;;;;;5052106;28;20025;-67
2024/02/11 09:14:25;;;;;;;1.40;1.30;;;18.60;72.60;;;;;;5036528;28;20079;-68
2024/02/11 09:16:51;;;;;;;1.00;0.90;;;18.70;72.60;;;;;;5054482;28;20055;-68
2024/02/11 09:19:17;;;;;;;1.33;1.23;;;18.70;72.60;;;;;;5054240;28;20100;-67
2024/02/11 09:21:43;;;;;;;1.70;1.52;;;18.70;72.60;;;;;;5054380;28;20588;-68
2024/02/11 09:24:10;;;;;;;1.48;1.33;;;18.60;72.60;;;;;;5054349;28;20029;-68
2024/02/11 09:26:36;;;;;;;1.70;1.60;;;18.70;72.60;;;;;;5054361;28;20484;-68
2024/02/11 09:29:01;;;;;;;1.42;1.33;;;18.70;72.60;;;;;;5053981;28;20033;-68
2024/02/11 09:31:28;;;;;;;1.23;1.13;;;18.70;72.60;;;;;;5054125;28;20515;-68
2024/02/11 09:33:54;;;;;;;1.33;1.23;;;18.70;72.70;;;;;;5053944;28;20692;-68
2024/02/11 09:36:20;;;;;;;1.83;1.63;;;18.70;72.60;;;;;;5054175;28;20079;-68
2024/02/11 09:38:47;;;;;;;1.55;1.45;;;18.70;72.60;;;;;;5053993;28;20519;-68
2024/02/11 09:41:13;;;;;;;1.83;1.60;;;18.70;72.60;;;;;;5053623;28;20060;-68
2024/02/11 09:43:39;;;;;;;1.90;1.70;;;18.70;72.60;;;;;;5054123;28;20033;-67
2024/02/11 09:46:06;;;;;;;1.55;1.30;;;18.70;72.60;;;;;;5054056;28;20025;-67
2024/02/11 09:48:34;;;;;;;1.35;1.25;;;18.70;72.60;;;;;;5053870;28;20024;-67
2024/02/11 09:51:01;;;;;;;1.75;1.60;;;18.70;72.60;;;;;;5053909;28;20024;-68
2024/02/11 09:53:28;;;;;;;1.58;1.45;;;18.70;72.60;;;;;;5054042;28;20124;-68
2024/02/11 09:55:54;;;;;;;2.00;1.42;;;18.70;72.60;;;;;;5053826;28;20122;-67
2024/02/11 09:58:20;;;;;;;1.65;1.30;;;18.70;72.60;;;;;;5053730;28;20055;-68
2024/02/11 10:00:46;;;;;;;2.08;1.80;;;18.70;72.70;;;;;;5055593;28;20033;-68
2024/02/11 10:03:17;;;;;;;2.17;1.55;;;18.70;72.60;;;;;;5053645;28;20035;-67
2024/02/11 10:05:45;;;;;;;;;;;18.60;72.60;;;;;;5053979;28;20025;-68
2024/02/11 10:08:14;;;;;;;1.70;1.60;;;18.70;72.60;;;;;;5036076;28;19908;-68
2024/02/11 10:10:40;;;;;;;2.15;1.70;;;18.60;72.70;;;;;;5053299;28;20079;-68
2024/02/11 10:13:19;;;;;;;1.90;1.80;;;18.70;72.70;;;;;;5053447;28;20032;-68
2024/02/11 10:15:45;;;;;;;2.00;1.80;;;18.70;72.70;;;;;;5053444;28;20041;-68
2024/02/11 10:18:11;;;;;;;1.70;1.60;;;18.60;72.60;;;;;;5053234;28;20025;-67
2024/02/11 10:20:37;;;;;;;2.13;1.92;;;18.70;72.70;;;;;;5035060;28;20496;-67
2024/02/11 10:23:05;;;;;;;2.20;1.83;;;18.70;72.60;;;;;;5051764;28;20078;-67
2024/02/11 10:25:34;;;;;;;2.45;2.20;;;18.70;72.60;;;;;;5052747;28;20021;-66
2024/02/11 10:28:01;;;;;;;1.90;1.70;;;18.70;72.60;;;;;;5053395;28;20298;-67
2024/02/11 10:30:27;;;;;;;2.08;1.88;;;18.70;72.60;;;;;;5052983;28;20029;-67
2024/02/11 10:32:59;;;;;;;2.20;2.00;;;18.70;72.70;;;;;;5053167;28;20037;-67
2024/02/11 10:35:29;;;;;;;2.90;2.30;;;18.70;72.70;;;;;;5053031;28;20129;-68
2024/02/11 10:37:55;;;;;;;2.33;2.13;;;18.70;72.70;;;;;;5052733;28;20040;-68
2024/02/11 10:40:23;;;;;;;1.75;1.63;;;18.70;72.70;;;;;;5052308;28;20033;-68
2024/02/11 10:42:50;;;;;;;1.60;1.50;;;18.60;72.70;;;;;;5052793;28;20029;-67
2024/02/11 10:45:16;;;;;;;2.20;2.00;;;18.70;72.70;;;;;;5034905;28;20025;-68
2024/02/11 10:47:42;;;;;;;2.17;1.90;;;18.70;72.70;;;;;;5052619;28;20029;-68
2024/02/11 10:50:10;;;;;;;2.80;2.03;;;18.70;72.70;;;;;;5052607;28;20060;-68
2024/02/11 10:52:43;;;;;;;1.77;1.67;;;18.70;72.60;;;;;;5052391;28;20025;-68
2024/02/11 10:55:13;;;;;;;2.83;2.25;;;18.70;72.70;;;;;;5052628;28;20097;-68
2024/02/11 10:57:49;;;;;;;2.67;2.10;;;18.60;72.70;;;;;;5052553;28;20021;-68
2024/02/11 11:00:20;;;;;;;2.58;2.20;;;18.70;72.70;;;;;;5052313;28;20024;-67
2024/02/11 11:02:53;;;;;;;2.20;2.00;;;18.60;72.70;;;;;;5052403;28;20102;-67
2024/02/11 11:05:21;;;;;;;2.72;2.10;;;18.70;72.70;;;;;;5052218;28;20056;-67
2024/02/11 11:07:49;;;;;;;2.95;2.25;;;18.60;72.70;;;;;;5052365;28;20044;-67
2024/02/11 11:10:15;;;;;;;2.10;1.80;;;18.70;72.70;;;;;;5052097;28;20086;-67
2024/02/11 11:12:54;;;;;;;2.50;2.30;;;18.60;72.70;;;;;;5052390;28;20497;-67
2024/02/11 11:15:32;;;;;;;2.17;1.92;;;18.70;72.70;;;;;;5051907;28;20028;-66
2024/02/11 11:18:01;;;;;;;2.20;1.80;;;18.70;72.70;;;;;;5052581;28;20123;-67
2024/02/11 11:20:27;;;;;;;2.67;1.90;;;18.70;72.70;;;;;;5052624;28;20028;-68
2024/02/11 11:22:56;;;;;;;1.95;1.75;;;18.70;72.70;;;;;;5035765;28;20040;-68
2024/02/11 11:25:26;;;;;;;2.28;2.03;;;18.60;72.70;;;;;;5054499;28;20025;-68
2024/02/11 11:27:52;;;;;;;2.97;2.45;;;18.70;72.70;;;;;;5056660;28;20021;-67
2024/02/11 11:30:19;;;;;;;2.45;2.17;;;18.60;72.70;;;;;;5055784;28;20027;-65
2024/02/11 11:32:51;;;;;;;2.63;2.25;;;18.60;72.70;;;;;;5055601;28;20055;-67
2024/02/11 11:35:17;;;;;;;2.17;1.98;;;18.70;72.70;;;;;;5051423;28;20025;-68
2024/02/11 11:37:43;;;;;;;2.03;1.77;;;18.60;72.70;;;;;;5051575;28;20082;-67
2024/02/11 11:40:10;;;;;;;3.15;2.58;;;18.60;72.70;;;;;;5039842;28;20036;-68
2024/02/11 11:42:36;;;;;;;2.50;2.15;;;18.70;72.70;;;;;;5031898;28;20026;-67
2024/02/11 11:45:09;;;;;;;2.42;2.10;;;18.70;72.70;;;;;;5031682;28;20043;-67
2024/02/11 11:47:36;;;;;;;2.35;2.00;;;18.70;72.70;;;;;;5031704;28;20056;-67
2024/02/11 11:50:05;;;;;;;2.85;2.38;;;18.70;72.70;;;;;;5031458;28;20021;-68
2024/02/11 11:52:34;;;;;;;2.72;2.28;;;18.70;72.70;;;;;;5031560;28;20022;-67
2024/02/11 11:55:03;;;;;;;2.83;2.17;;;18.60;72.70;;;;;;5031624;28;20026;-68
2024/02/11 11:57:29;;;;;;;2.08;1.83;;;18.60;72.70;;;;;;5031419;28;20109;-68
2024/02/11 11:59:58;;;;;;;2.92;2.50;;;18.60;72.70;;;;;;5031444;28;20061;-68
2024/02/11 12:02:29;;;;;;;3.22;2.28;;;18.70;72.70;;;;;;5031308;28;20159;-68
2024/02/11 12:04:54;;;;;;;2.17;1.98;;;18.70;72.70;;;;;;5031312;28;20072;-67
2024/02/11 12:07:21;;;;;;;2.40;1.90;;;18.60;72.70;;;;;;5031291;28;20480;-68
2024/02/11 12:09:50;;;;;;;2.90;2.30;;;18.70;72.70;;;;;;5031446;28;20036;-67
2024/02/11 12:12:16;;;;;;;2.47;2.10;;;18.70;72.70;;;;;;5031180;28;20404;-68
2024/02/11 12:14:42;;;;;;;4.03;2.42;;;18.60;72.70;;;;;;5031306;28;20018;-67
2024/02/11 12:17:09;;;;;;;2.22;2.00;;;18.60;72.70;;;;;;5031294;28;20045;-67
2024/02/11 12:19:40;;;;;;;2.45;2.00;;;18.70;72.70;;;;;;5030995;28;20512;-68
2024/02/11 12:22:07;;;;;;;2.42;2.22;;;18.60;72.70;;;;;;5030980;28;20021;-67
2024/02/11 12:24:38;;;;;;;3.35;2.33;;;18.70;72.70;;;;;;5031051;28;20025;-67
2024/02/11 12:27:11;;;;;;;2.20;2.00;;;18.60;72.70;;;;;;5013366;28;20092;-67
2024/02/11 12:29:37;;;;;;;2.65;2.40;;;18.70;72.70;;;;;;5030854;28;20108;-68
2024/02/11 12:32:10;;;;;;;2.55;2.17;;;18.70;72.70;;;;;;5030649;28;20018;-68
2024/02/11 12:34:37;;;;;;;2.55;2.08;;;18.60;72.70;;;;;;5031255;28;20376;-67
2024/02/11 12:37:03;;;;;;;2.20;2.00;;;18.60;72.70;;;;;;5031006;28;20116;-68
2024/02/11 12:39:32;;;;;;;2.75;2.15;;;18.60;72.70;;;;;;5031072;28;20045;-67
2024/02/11 12:41:58;;;;;;;2.25;1.98;;;18.60;72.70;;;;;;5030907;28;20022;-67
2024/02/11 12:44:25;;;;;;;2.65;1.90;;;18.70;72.80;;;;;;5030871;28;20029;-67
2024/02/11 12:46:51;;;;;;;2.60;2.40;;;18.70;72.70;;;;;;5032199;28;20086;-67
2024/02/11 12:49:17;;;;;;;2.17;1.98;;;18.70;72.70;;;;;;5034999;28;20100;-67